Time;durP1;ratioP1;P1;durP2;ratioP2;P2;SDS_P1;SDS_P2;PMS_P1;PMS_P2;Temp;Humidity;BMP_temperature;BMP_pressure;BME280_temperature;BME280_humidity;BME280_pressure;Samples;Min_cycle;Max_cycle;Signal;HPM_P1;HPM_P2
2023/02/14 00:01:46;;;;;;;41.03;18.90;;;;;;;-0.47;69.32;101525.75;5051972;28;20035;-36
2023/02/14 00:04:12;;;;;;;50.20;20.08;;;;;;;-0.17;69.51;101550.66;5052235;28;20162;-36
2023/02/14 00:06:38;;;;;;;38.47;18.55;;;;;;;-0.44;69.93;101549.09;5052591;28;20515;-35
2023/02/14 00:09:06;;;;;;;37.42;17.70;;;;;;;-0.76;70.32;101517.34;5052073;28;20481;-36
2023/02/14 00:11:32;;;;;;;35.33;17.40;;;;;;;-0.70;71.09;101552.75;5051750;28;20061;-35
2023/02/14 00:16:42;;;;;;;36.38;17.38;;;;;;;-0.79;70.65;101521.97;5052061;28;20726;-35
2023/02/14 00:19:10;;;;;;;44.50;19.42;;;;;;;-0.62;70.46;101553.03;5051926;28;20119;-35
2023/02/14 00:21:37;;;;;;;39.30;17.95;;;;;;;-0.94;71.45;101553.56;5051728;28;20741;-36
2023/02/14 00:24:05;;;;;;;38.60;18.42;;;;;;;-1.02;71.72;101542.78;5051805;28;20039;-35
2023/02/14 00:26:31;;;;;;;35.45;18.05;;;;;;;-0.95;71.07;101540.56;5051820;28;20511;-36
2023/02/14 00:28:56;;;;;;;39.38;18.90;;;;;;;-0.99;72.11;101558.25;5051654;28;20069;-35
2023/02/14 00:31:22;;;;;;;46.42;21.55;;;;;;;-0.87;71.26;101561.81;5051533;28;20020;-34
2023/02/14 00:33:47;;;;;;;51.85;22.58;;;;;;;-1.06;71.45;101559.66;5051804;28;20029;-36
2023/02/14 00:36:19;;;;;;;50.47;21.95;;;;;;;-1.32;71.75;101543.94;5051530;28;20100;-36
2023/02/14 00:38:45;;;;;;;49.28;20.23;;;;;;;-1.25;71.29;101526.03;5050915;28;20029;-35
2023/02/14 00:41:18;;;;;;;44.30;20.92;;;;;;;-1.06;70.51;101557.84;5051936;28;20036;-36
2023/02/14 00:43:45;;;;;;;47.83;19.88;;;;;;;-0.96;70.58;101558.06;5051391;28;20040;-36
2023/02/14 00:46:10;;;;;;;43.60;19.55;;;;;;;-0.88;70.20;101558.38;5051286;28;20094;-35
2023/02/14 00:48:36;;;;;;;43.55;19.38;;;;;;;-0.64;69.41;101547.06;5051137;28;20033;-35
2023/02/14 00:51:01;;;;;;;40.08;17.77;;;;;;;-0.53;68.70;101564.66;5050851;28;20029;-36
2023/02/14 00:53:26;;;;;;;34.13;17.80;;;;;;;-0.50;69.93;101565.28;5050813;28;20420;-36
2023/02/14 00:55:52;;;;;;;38.35;17.45;;;;;;;-0.51;70.00;101563.59;5050950;28;20103;-36
2023/02/14 00:58:17;;;;;;;39.38;18.42;;;;;;;-0.69;69.42;101564.91;5050984;28;20048;-36
2023/02/14 01:00:43;;;;;;;39.58;17.65;;;;;;;-0.99;69.35;101558.25;5051069;28;20033;-35
2023/02/14 01:03:08;;;;;;;36.28;18.65;;;;;;;-1.01;69.70;101560.16;5051326;28;20029;-36
2023/02/14 01:05:33;;;;;;;38.85;18.13;;;;;;;-1.31;69.30;101535.16;5051012;28;20033;-35
2023/02/14 01:07:59;;;;;;;38.85;17.75;;;;;;;-1.35;69.48;101557.22;5050819;28;20060;-35
2023/02/14 01:10:24;;;;;;;37.00;18.25;;;;;;;-1.25;69.90;101558.31;5051050;28;20596;-35
2023/02/14 01:12:50;;;;;;;39.25;19.95;;;;;;;-1.25;71.00;101544.34;5050894;28;20488;-37
2023/02/14 01:15:15;;;;;;;43.88;19.83;;;;;;;-1.16;70.86;101562.06;5050990;28;20113;-36
2023/02/14 01:17:40;;;;;;;44.72;20.55;;;;;;;-1.46;73.64;101530.97;5050760;28;20025;-35
2023/02/14 01:20:07;;;;;;;45.03;19.77;;;;;;;-1.43;74.85;101518.53;5050668;28;20029;-35
2023/02/14 01:22:36;;;;;;;44.35;20.90;;;;;;;-1.56;76.53;101520.28;5050689;28;20480;-36
2023/02/14 01:25:01;;;;;;;40.72;20.35;;;;;;;-1.50;77.57;101532.94;5050743;28;20029;-38
2023/02/14 01:27:27;;;;;;;46.17;19.92;;;;;;;-1.43;77.29;101528.13;5050262;28;20381;-34
2023/02/14 01:29:52;;;;;;;42.42;20.92;;;;;;;-1.35;78.17;101531.06;5050632;28;20035;-35
2023/02/14 01:32:18;;;;;;;49.05;22.20;;;;;;;-1.10;77.75;101532.00;5050390;28;20036;-35
2023/02/14 01:34:43;;;;;;;42.38;20.77;;;;;;;-1.12;77.80;101526.03;5050298;28;20028;-36
2023/02/14 01:37:08;;;;;;;42.50;19.42;;;;;;;-1.32;77.33;101483.75;5050215;28;20549;-36
2023/02/14 01:39:34;;;;;;;40.55;21.50;;;;;;;-1.04;76.82;101518.47;5049855;28;20111;-36
2023/02/14 01:41:59;;;;;;;45.05;21.35;;;;;;;-1.24;77.09;101512.00;5050439;28;20040;-34
2023/02/14 01:44:25;;;;;;;42.58;21.00;;;;;;;-1.20;76.79;101507.41;5050172;28;20381;-35
2023/02/14 01:46:50;;;;;;;41.50;21.23;;;;;;;-0.95;75.37;101496.88;5050236;28;20081;-36
2023/02/14 01:49:17;;;;;;;45.28;20.83;;;;;;;-0.87;75.35;101505.03;5050172;28;20033;-36
2023/02/14 01:51:55;;;;;;;48.75;21.10;;;;;;;-1.03;75.87;101501.81;5049777;28;20025;-36
2023/02/14 01:54:24;;;;;;;43.17;19.70;;;;;;;-1.07;75.94;101487.25;5050205;28;20036;-36
2023/02/14 01:56:56;;;;;;;39.20;19.67;;;;;;;-0.91;76.41;101506.19;5049905;28;20040;-36
2023/02/14 01:59:26;;;;;;;37.13;18.65;;;;;;;-1.09;76.30;101489.97;5050166;28;20029;-35
2023/02/14 02:01:52;;;;;;;42.80;19.63;;;;;;;-0.92;75.46;101499.28;5049114;28;20060;-36
2023/02/14 02:04:22;;;;;;;42.25;20.45;;;;;;;-0.82;75.06;101500.31;5049776;28;20064;-36
2023/02/14 02:06:53;;;;;;;44.20;20.58;;;;;;;-0.66;73.38;101488.72;5050263;28;20478;-36
2023/02/14 02:09:33;;;;;;;35.85;18.27;;;;;;;-0.87;73.71;101491.91;5049787;28;20029;-36
2023/02/14 02:11:59;;;;;;;43.50;18.95;;;;;;;-1.08;74.35;101496.06;5049790;28;20048;-37
2023/02/14 02:14:27;;;;;;;38.75;19.30;;;;;;;-0.83;73.89;101490.75;5049601;28;20406;-35
2023/02/14 02:17:24;;;;;;;39.45;19.35;;;;;;;-0.68;72.53;101491.44;5049605;28;20044;-36
2023/02/14 02:20:27;;;;;;;41.78;19.60;;;;;;;-0.86;72.75;101498.84;5049599;28;20029;-35
2023/02/14 02:23:26;;;;;;;42.35;18.20;;;;;;;-0.84;73.67;101483.00;5049341;28;20109;-35
2023/02/14 02:26:06;;;;;;;47.78;21.13;;;;;;;-0.79;72.56;101485.31;5049794;28;20029;-36
2023/02/14 02:29:01;;;;;;;48.25;21.60;;;;;;;-0.70;72.72;101480.22;5048244;28;20035;-35
2023/02/14 02:31:57;;;;;;;39.03;20.63;;;;;;;-0.91;72.84;101477.38;5047477;28;20033;-36
2023/02/14 02:34:53;;;;;;;44.10;22.88;;;;;;;-0.96;73.14;101476.03;5049464;28;20079;-36
2023/02/14 02:37:54;;;;;;;48.25;23.13;;;;;;;-1.27;74.34;101465.09;5047921;28;20508;-36
2023/02/14 02:40:44;;;;;;;48.50;22.90;;;;;;;-1.20;74.77;101483.84;5047635;28;20053;-36
2023/02/14 02:43:25;;;;;;;54.60;26.17;;;;;;;-1.50;74.97;101464.09;5049399;28;20029;-36
2023/02/14 02:49:10;;;;;;;69.97;34.88;;;;;;;-1.21;74.04;101480.38;5049440;28;20560;-35
2023/02/14 02:54:52;;;;;;;62.38;31.45;;;;;;;-1.27;73.65;101463.34;5049533;28;20044;-34
2023/02/14 02:57:25;;;;;;;63.22;31.33;;;;;;;-1.25;72.71;101458.84;5049032;28;20101;-35
2023/02/14 02:59:54;;;;;;;62.85;33.35;;;;;;;-1.54;73.51;101429.44;5049053;28;20082;-36
2023/02/14 03:02:26;;;;;;;74.50;34.40;;;;;;;-1.80;75.24;101457.38;5048945;28;20857;-34
2023/02/14 03:04:58;;;;;;;56.75;28.95;;;;;;;-1.76;74.43;101437.94;5049150;28;20039;-35
2023/02/14 03:07:36;;;;;;;65.65;31.27;;;;;;;-1.74;74.40;101462.19;5049069;28;20025;-36
2023/02/14 03:10:05;;;;;;;74.25;35.97;;;;;;;-1.48;73.90;101457.81;5048797;28;20378;-35
2023/02/14 03:12:33;;;;;;;82.35;38.85;;;;;;;-1.15;72.94;101458.16;5048993;28;20037;-35
2023/02/14 03:15:31;;;;;;;90.40;43.88;;;;;;;-1.34;72.83;101438.53;5052855;28;20036;-35
2023/02/14 03:18:28;;;;;;;83.50;41.08;;;;;;;-1.18;72.67;101445.31;5053173;28;20040;-35
2023/02/14 03:20:59;;;;;;;100.55;44.72;;;;;;;-1.52;73.90;101445.88;5053060;28;20033;-35
2023/02/14 03:23:29;;;;;;;114.80;44.95;;;;;;;-1.58;74.85;101450.72;5052601;28;20041;-35
2023/02/14 03:26:16;;;;;;;84.53;40.80;;;;;;;-1.41;74.04;101437.28;5053095;28;20028;-36
2023/02/14 03:28:50;;;;;;;89.72;40.75;;;;;;;-1.23;73.11;101445.63;5052890;28;20489;-36
2023/02/14 03:31:41;;;;;;;89.15;40.28;;;;;;;-1.42;74.99;101412.06;5052507;28;20109;-36
2023/02/14 03:34:13;;;;;;;78.95;35.58;;;;;;;-1.37;75.04;101428.25;5052825;28;20116;-36
2023/02/14 03:36:41;;;;;;;74.20;37.47;;;;;;;-1.40;74.98;101438.97;5053186;28;20025;-36
2023/02/14 03:39:10;;;;;;;80.90;37.25;;;;;;;-1.34;74.63;101433.28;5052297;28;20049;-36
2023/02/14 03:41:43;;;;;;;73.13;34.03;;;;;;;-1.32;75.48;101446.28;5052348;28;20140;-36
2023/02/14 03:44:11;;;;;;;70.13;34.90;;;;;;;-1.25;73.56;101442.28;5052378;28;20481;-36
2023/02/14 03:46:51;;;;;;;71.45;34.88;;;;;;;-1.41;74.79;101432.03;5052311;28;20500;-36
2023/02/14 03:49:22;;;;;;;139.77;54.70;;;;;;;-1.70;75.89;101449.75;5050891;28;20132;-36
2023/02/14 03:51:51;;;;;;;95.07;42.35;;;;;;;-1.87;76.25;101430.00;5052475;28;20485;-36
2023/02/14 03:54:19;;;;;;;76.93;36.97;;;;;;;-1.77;76.67;101441.50;5052246;28;20033;-34
2023/02/14 03:56:52;;;;;;;66.03;33.40;;;;;;;-2.01;77.72;101410.03;5052140;28;20033;-35
2023/02/14 03:59:25;;;;;;;120.63;45.10;;;;;;;-1.81;76.96;101408.66;5052162;28;20044;-34
2023/02/14 04:02:14;;;;;;;149.05;53.20;;;;;;;-1.58;75.75;101424.53;5052251;28;20087;-35
2023/02/14 04:04:45;;;;;;;69.40;32.70;;;;;;;-1.42;75.31;101422.53;5052271;28;20031;-36
2023/02/14 04:07:12;;;;;;;63.75;32.15;;;;;;;-1.31;74.89;101417.41;5052324;28;20040;-36
2023/02/14 04:09:38;;;;;;;70.95;32.85;;;;;;;-1.34;74.56;101422.81;5050765;28;20483;-36
2023/02/14 04:12:04;;;;;;;62.22;30.02;;;;;;;-1.49;74.62;101418.66;5051783;28;20560;-35
2023/02/14 04:14:32;;;;;;;70.93;32.55;;;;;;;-1.36;74.89;101424.72;5051848;28;20024;-36
2023/02/14 04:19:59;;;;;;;81.57;36.22;;;;;;;-1.78;75.55;101408.44;5052120;28;20052;-35
2023/02/14 04:22:26;;;;;;;68.05;32.85;;;;;;;-1.98;75.41;101398.50;5051837;28;20469;-35
2023/02/14 04:24:54;;;;;;;68.32;31.88;;;;;;;-1.86;75.32;101408.13;5051037;28;20092;-35
2023/02/14 04:27:19;;;;;;;58.77;29.27;;;;;;;-1.95;75.92;101400.94;5051677;28;20035;-35
2023/02/14 04:29:47;;;;;;;69.50;32.10;;;;;;;-1.79;75.05;101401.56;5050182;28;20148;-35
2023/02/14 04:32:20;;;;;;;103.82;43.72;;;;;;;-1.95;75.77;101399.13;5051437;28;20029;-35
2023/02/14 04:34:46;;;;;;;83.95;39.38;;;;;;;-2.03;76.97;101389.19;5051656;28;20115;-35
2023/02/14 04:37:12;;;;;;;71.03;35.33;;;;;;;-2.07;76.67;101397.38;5051632;28;20031;-35
2023/02/14 04:39:37;;;;;;;66.00;29.63;;;;;;;-2.15;77.26;101376.13;5051247;28;20049;-35
2023/02/14 04:42:04;;;;;;;69.53;32.38;;;;;;;-2.10;78.16;101382.72;5051544;28;20044;-36
2023/02/14 04:44:29;;;;;;;79.78;43.90;;;;;;;-2.01;77.28;101360.34;5051201;28;20025;-35
2023/02/14 04:46:55;;;;;;;157.10;69.32;;;;;;;-1.74;76.21;101373.28;5051520;28;20540;-35
2023/02/14 04:49:20;;;;;;;91.03;42.00;;;;;;;-1.83;75.96;101385.22;5051258;28;20412;-35
2023/02/14 04:51:46;;;;;;;174.82;63.35;;;;;;;-2.14;76.81;101359.53;5051318;28;20025;-35
2023/02/14 04:54:12;;;;;;;146.77;56.65;;;;;;;-2.10;77.02;101371.44;5051318;28;20033;-35
2023/02/14 04:56:38;;;;;;;125.95;52.33;;;;;;;-1.95;76.93;101380.00;5051111;28;20025;-36
2023/02/14 04:59:04;;;;;;;101.85;44.58;;;;;;;-2.08;75.92;101332.97;5050841;28;20033;-35
2023/02/14 05:01:30;;;;;;;83.63;39.72;;;;;;;-2.18;76.00;101353.66;5050787;28;20029;-34
2023/02/14 05:03:55;;;;;;;99.85;42.95;;;;;;;-2.05;76.10;101354.50;5051406;28;20032;-35
2023/02/14 05:06:21;;;;;;;88.22;41.28;;;;;;;-2.20;75.03;101345.09;5050901;28;20021;-35
2023/02/14 05:08:49;;;;;;;82.38;36.38;;;;;;;-2.22;75.89;101336.53;5050968;28;20469;-35
2023/02/14 05:11:14;;;;;;;78.15;36.72;;;;;;;-2.15;75.65;101337.75;5050778;28;20566;-35
2023/02/14 05:13:40;;;;;;;72.35;34.83;;;;;;;-2.44;76.84;101324.06;5050651;28;20067;-35
2023/02/14 05:16:05;;;;;;;83.80;35.90;;;;;;;-1.99;76.62;101362.88;5049873;28;20473;-35
2023/02/14 05:18:31;;;;;;;78.80;35.75;;;;;;;-1.79;75.32;101364.94;5050910;28;20111;-35
2023/02/14 05:20:56;;;;;;;72.35;36.17;;;;;;;-2.08;75.08;101367.78;5050801;28;20510;-35
2023/02/14 05:23:24;;;;;;;74.78;34.15;;;;;;;-1.91;74.54;101381.47;5049091;28;20025;-36
2023/02/14 05:25:50;;;;;;;66.43;36.10;;;;;;;-1.86;73.98;101358.44;5050506;28;20549;-35
2023/02/14 05:28:17;;;;;;;73.47;31.83;;;;;;;-1.91;73.70;101357.94;5050282;28;20029;-35
2023/02/14 05:30:42;;;;;;;64.57;29.00;;;;;;;-1.88;73.59;101355.97;5050702;28;20504;-36
2023/02/14 05:33:08;;;;;;;59.70;29.88;;;;;;;-1.76;73.45;101369.94;5050569;28;20043;-36
2023/02/14 05:35:33;;;;;;;63.90;28.55;;;;;;;-1.78;74.51;101371.81;5048988;28;20166;-36
2023/02/14 05:38:01;;;;;;;62.55;30.83;;;;;;;-1.80;74.09;101352.78;5050561;28;20397;-35
2023/02/14 05:40:27;;;;;;;64.90;30.58;;;;;;;-1.72;73.82;101363.56;5049947;28;20053;-36
2023/02/14 05:42:54;;;;;;;61.58;30.05;;;;;;;-1.76;73.64;101377.78;5050223;28;20037;-35
2023/02/14 05:45:21;;;;;;;62.75;31.38;;;;;;;-1.65;73.10;101356.97;5050036;28;20021;-35
2023/02/14 05:47:47;;;;;;;68.32;32.78;;;;;;;-1.45;72.88;101378.25;5050252;28;20028;-35
2023/02/14 05:50:13;;;;;;;68.25;33.60;;;;;;;-1.27;71.84;101356.03;5050167;28;20032;-36
2023/02/14 05:52:38;;;;;;;67.32;32.65;;;;;;;-1.49;72.19;101332.31;5049935;28;20078;-35
2023/02/14 05:55:04;;;;;;;66.25;32.75;;;;;;;-1.84;73.91;101346.09;5048743;28;20036;-36
2023/02/14 05:57:30;;;;;;;71.18;32.92;;;;;;;-1.90;74.60;101343.91;5049530;28;20037;-35
2023/02/14 05:59:55;;;;;;;72.82;37.47;;;;;;;-1.89;73.75;101340.38;5050207;28;20060;-35
2023/02/14 06:02:21;;;;;;;89.32;38.38;;;;;;;-1.86;73.90;101364.53;5049702;28;20441;-36
2023/02/14 06:04:46;;;;;;;79.47;39.85;;;;;;;-1.73;73.82;101361.91;5050096;28;20025;-35
2023/02/14 06:07:11;;;;;;;103.57;47.28;;;;;;;-1.83;74.70;101364.31;5049785;28;20028;-35
2023/02/14 06:09:37;;;;;;;88.65;40.58;;;;;;;-1.98;75.19;101357.53;5049408;28;20055;-36
2023/02/14 06:12:03;;;;;;;87.32;41.97;;;;;;;-2.02;75.68;101364.75;5049322;28;20021;-34
2023/02/14 06:14:28;;;;;;;115.22;49.95;;;;;;;-2.02;75.48;101354.28;5049822;28;20174;-36
2023/02/14 06:16:53;;;;;;;92.53;43.65;;;;;;;-1.53;74.40;101359.63;5049592;28;20043;-36
2023/02/14 06:19:19;;;;;;;107.20;51.03;;;;;;;-1.38;73.90;101342.88;5049536;28;20035;-36
2023/02/14 06:21:45;;;;;;;118.75;56.22;;;;;;;-1.42;73.72;101338.78;5048864;28;20164;-36
2023/02/14 06:24:10;;;;;;;124.95;58.90;;;;;;;-1.20;74.11;101342.50;5049580;28;20408;-36
2023/02/14 06:26:36;;;;;;;101.68;46.78;;;;;;;-0.96;73.83;101343.34;5049437;28;20025;-36
2023/02/14 06:29:03;;;;;;;99.25;46.90;;;;;;;-0.99;74.01;101342.72;5049554;28;20025;-36
2023/02/14 06:31:28;;;;;;;114.38;54.17;;;;;;;-0.91;75.45;101322.03;5049368;28;20021;-36
2023/02/14 06:33:54;;;;;;;106.25;50.95;;;;;;;-0.79;74.82;101328.97;5049688;28;20597;-35
2023/02/14 06:36:20;;;;;;;93.93;47.20;;;;;;;-0.76;75.18;101330.53;5049466;28;20481;-36
2023/02/14 06:38:47;;;;;;;99.65;47.50;;;;;;;-0.57;74.71;101322.13;5048962;28;20029;-36
2023/02/14 06:41:15;;;;;;;126.47;61.47;;;;;;;-0.24;73.95;101345.78;5047842;28;20416;-36
2023/02/14 06:43:41;;;;;;;;;;;;;;;-0.14;73.67;101348.56;5049971;28;20120;-36
2023/02/14 06:46:06;;;;;;;131.77;64.28;;;;;;;0.03;72.92;101356.91;5049134;28;19988;-36
2023/02/14 06:48:34;;;;;;;175.13;84.78;;;;;;;0.05;71.66;101340.09;5048924;28;20108;-36
2023/02/14 06:51:00;;;;;;;221.68;109.13;;;;;;;0.40;70.88;101345.19;5049059;28;20090;-36
2023/02/14 06:53:25;;;;;;;186.73;83.72;;;;;;;0.63;70.61;101345.16;5049029;28;20025;-36
2023/02/14 06:55:51;;;;;;;192.80;88.07;;;;;;;0.83;70.36;101334.84;5048749;28;20032;-35
2023/02/14 06:58:16;;;;;;;164.00;81.57;;;;;;;1.17;69.27;101338.19;5049053;28;20091;-36
2023/02/14 07:00:42;;;;;;;146.05;69.70;;;;;;;1.34;68.35;101332.34;5049002;28;20092;-36
2023/02/14 07:03:07;;;;;;;132.38;61.88;;;;;;;1.50;67.83;101339.81;5049182;28;20078;-36
2023/02/14 07:05:33;;;;;;;146.57;65.20;;;;;;;1.69;66.67;101336.44;5048911;28;20033;-36
2023/02/14 07:07:59;;;;;;;114.80;53.70;;;;;;;2.00;66.18;101342.59;5048930;28;20025;-36
2023/02/14 07:10:24;;;;;;;139.07;64.45;;;;;;;1.99;66.57;101330.38;5048823;28;20068;-36
2023/02/14 07:12:50;;;;;;;124.57;62.17;;;;;;;2.49;65.78;101342.75;5049153;28;20065;-36
2023/02/14 07:15:15;;;;;;;126.03;62.25;;;;;;;2.60;65.84;101347.09;5049068;28;20116;-36
2023/02/14 07:17:44;;;;;;;117.47;59.15;;;;;;;2.56;66.39;101349.16;5048972;28;20538;-36
2023/02/14 07:20:11;;;;;;;121.13;57.08;;;;;;;2.79;65.34;101341.00;5049084;28;20032;-36
2023/02/14 07:22:37;;;;;;;117.88;53.75;;;;;;;2.61;65.84;101309.22;5048721;28;20619;-37
2023/02/14 07:25:04;;;;;;;108.30;51.80;;;;;;;2.96;65.62;101323.69;5048758;28;20036;-36
2023/02/14 07:27:31;;;;;;;106.45;52.63;;;;;;;3.28;64.93;101343.66;5048840;28;20033;-36
2023/02/14 07:29:57;;;;;;;76.63;36.80;;;;;;;3.37;64.29;101342.81;5048998;28;20709;-36
2023/02/14 07:32:24;;;;;;;69.60;31.90;;;;;;;3.54;63.75;101342.13;5048834;28;20330;-37
2023/02/14 07:34:50;;;;;;;70.47;34.55;;;;;;;3.73;63.30;101345.69;5048742;28;20022;-36
2023/02/14 07:37:16;;;;;;;60.75;28.67;;;;;;;3.79;62.89;101318.72;5048522;28;20034;-36
2023/02/14 07:39:43;;;;;;;46.33;21.55;;;;;;;3.82;62.14;101324.56;5048392;28;20052;-36
2023/02/14 07:42:09;;;;;;;51.67;25.73;;;;;;;4.18;61.93;101323.84;5040769;28;20075;-36
2023/02/14 07:44:37;;;;;;;39.40;21.33;;;;;;;4.34;60.44;101342.53;5039848;28;20028;-36
2023/02/14 07:47:02;;;;;;;71.55;38.47;;;;;;;4.30;61.83;101298.91;5047335;28;20025;-36
2023/02/14 07:49:28;;;;;;;40.35;21.27;;;;;;;4.52;60.34;101315.34;5047291;28;20036;-36
2023/02/14 07:52:02;;;;;;;40.30;19.67;;;;;;;4.62;60.70;101324.88;5048442;28;20412;-36
2023/02/14 07:54:27;;;;;;;33.08;18.05;;;;;;;4.73;59.49;101326.47;5039270;28;20424;-36
2023/02/14 07:56:53;;;;;;;30.83;17.00;;;;;;;4.55;60.58;101301.81;5037945;28;20017;-36
2023/02/14 07:59:18;;;;;;;34.58;18.30;;;;;;;4.99;59.36;101325.72;5035714;28;20033;-36
2023/02/14 08:01:44;;;;;;;35.00;17.80;;;;;;;4.78;60.41;101328.66;5041411;28;20427;-36
2023/02/14 08:04:12;;;;;;;37.33;18.27;;;;;;;4.95;59.68;101319.09;5040747;28;20474;-36
2023/02/14 08:06:37;;;;;;;32.40;16.50;;;;;;;4.67;60.41;101319.13;5041099;28;20114;-36
2023/02/14 08:09:03;;;;;;;36.97;18.20;;;;;;;4.98;60.55;101319.59;5042601;28;20115;-35
2023/02/14 08:14:12;;;;;;;37.95;18.20;;;;;;;5.49;58.83;101317.19;5042543;28;20094;-35
2023/02/14 08:16:38;;;;;;;34.03;17.80;;;;;;;5.78;59.15;101342.53;5041932;28;20417;-35
2023/02/14 08:19:04;;;;;;;27.95;17.30;;;;;;;6.01;58.10;101337.56;5045528;28;20393;-35
2023/02/14 08:21:30;;;;;;;31.95;17.45;;;;;;;6.10;56.79;101335.78;5044690;28;20094;-35
2023/02/14 08:23:55;;;;;;;30.35;16.35;;;;;;;6.30;56.25;101331.09;5047512;28;20036;-36
2023/02/14 08:26:21;;;;;;;29.88;16.55;;;;;;;6.48;57.02;101354.81;5044366;28;20021;-35
2023/02/14 08:28:46;;;;;;;37.55;19.30;;;;;;;6.48;56.82;101342.41;5042006;28;20112;-35
2023/02/14 08:31:11;;;;;;;34.97;17.80;;;;;;;6.76;56.44;101358.03;5041907;28;20406;-36
2023/02/14 08:33:37;;;;;;;32.20;17.58;;;;;;;6.72;55.71;101344.31;5039633;28;20514;-35
2023/02/14 08:36:03;;;;;;;34.10;16.92;;;;;;;7.02;56.36;101358.75;5041215;28;20256;-36
2023/02/14 08:38:28;;;;;;;35.45;18.48;;;;;;;7.21;55.35;101347.03;5043894;28;20036;-35
2023/02/14 08:40:59;;;;;;;29.85;16.50;;;;;;;7.52;54.09;101353.47;5049292;28;20084;-35
2023/02/14 08:43:24;;;;;;;37.22;19.40;;;;;;;7.60;53.25;101356.13;5046441;28;20057;-35
2023/02/14 08:45:52;;;;;;;29.13;15.85;;;;;;;7.54;54.00;101328.44;5046578;28;20100;-36
2023/02/14 08:48:18;;;;;;;28.00;16.40;;;;;;;8.03;52.61;101341.59;5037654;28;20048;-36
2023/02/14 08:50:43;;;;;;;32.05;17.13;;;;;;;8.25;53.00;101339.19;5031120;28;20693;-36
2023/02/14 08:53:11;;;;;;;32.03;17.17;;;;;;;8.43;51.01;101329.19;5031323;28;20037;-36
2023/02/14 08:55:37;;;;;;;29.42;17.33;;;;;;;8.53;50.75;101336.13;5031048;28;20120;-36
2023/02/14 08:58:03;;;;;;;28.40;16.80;;;;;;;8.28;51.37;101311.47;5031120;28;20414;-36
2023/02/14 09:00:30;;;;;;;29.25;14.82;;;;;;;8.25;50.76;101341.84;5031044;28;20661;-36
2023/02/14 09:02:55;;;;;;;78.20;35.85;;;;;;;8.59;50.78;101335.44;5030939;28;20504;-36
2023/02/14 09:05:22;;;;;;;31.58;19.25;;;;;;;8.79;51.26;101330.50;5030916;28;20034;-36
2023/02/14 09:07:49;;;;;;;33.17;17.13;;;;;;;8.81;50.04;101318.66;5030142;28;20041;-36
2023/02/14 09:10:17;;;;;;;41.15;22.42;;;;;;;9.03;50.16;101310.84;5030905;28;20076;-36
2023/02/14 09:12:45;;;;;;;29.85;17.77;;;;;;;9.23;49.32;101322.69;5030476;28;20042;-36
2023/02/14 09:15:13;;;;;;;28.15;16.20;;;;;;;9.25;49.47;101310.03;5030696;28;20039;-36
2023/02/14 09:17:39;;;;;;;73.47;38.33;;;;;;;9.54;48.51;101313.75;5030628;28;20024;-35
2023/02/14 09:20:06;;;;;;;28.98;16.90;;;;;;;9.66;47.28;101290.16;5030575;28;20037;-35
2023/02/14 09:22:33;;;;;;;31.75;18.45;;;;;;;9.55;48.42;101288.78;5030728;28;20071;-36
2023/02/14 09:24:59;;;;;;;30.75;17.10;;;;;;;9.80;46.64;101301.84;5030515;28;20056;-37
2023/02/14 09:27:25;;;;;;;24.92;14.93;;;;;;;9.63;45.76;101291.34;5030268;28;20025;-37
2023/02/14 09:29:50;;;;;;;27.20;13.77;;;;;;;9.47;44.69;101285.38;5030693;28;20460;-35
2023/02/14 09:32:16;;;;;;;27.52;14.65;;;;;;;9.94;43.68;101302.84;5030206;28;20026;-36
2023/02/14 09:40:14;;;;;;;19.90;11.93;;;;;;;9.81;41.97;101280.34;5030133;28;20059;-36
2023/02/14 09:43:09;;;;;;;26.80;14.52;;;;;;;10.11;42.49;101292.81;5030145;28;20044;-36
2023/02/14 09:45:35;;;;;;;24.63;12.70;;;;;;;10.49;40.56;101300.69;5029778;28;20065;-36
2023/02/14 09:48:31;;;;;;;21.63;12.85;;;;;;;10.45;39.92;101298.41;5030387;28;20030;-36
2023/02/14 09:51:04;;;;;;;24.08;14.02;;;;;;;10.58;41.34;101297.75;5029428;28;20076;-36
2023/02/14 09:53:39;;;;;;;24.88;13.68;;;;;;;10.50;40.82;101297.00;5029993;28;20033;-36
2023/02/14 09:56:15;;;;;;;24.48;13.55;;;;;;;10.71;40.40;101296.22;5029988;28;20037;-36
2023/02/14 09:59:03;;;;;;;24.00;11.18;;;;;;;10.85;39.38;101287.34;5030211;28;20025;-36
2023/02/14 10:01:42;;;;;;;22.00;11.57;;;;;;;11.20;39.00;101282.91;5029521;28;20036;-36
2023/02/14 10:04:32;;;;;;;16.35;10.80;;;;;;;11.56;37.89;101279.25;5029916;28;20091;-36
2023/02/14 10:07:17;;;;;;;17.17;9.95;;;;;;;11.43;37.06;101249.81;5028642;28;20049;-37
2023/02/14 10:09:57;;;;;;;14.50;8.15;;;;;;;11.56;36.29;101260.56;5029485;28;20025;-35
2023/02/14 10:12:28;;;;;;;17.23;8.77;;;;;;;11.00;35.94;101260.56;5029888;28;20034;-37
2023/02/14 10:14:59;;;;;;;18.92;9.77;;;;;;;11.27;36.02;101245.56;5029514;28;20025;-36
2023/02/14 10:17:27;;;;;;;17.33;10.73;;;;;;;11.53;35.63;101254.81;5029546;28;20203;-37
2023/02/14 10:19:58;;;;;;;18.50;10.18;;;;;;;11.88;35.83;101242.25;5029311;28;20029;-37
2023/02/14 10:22:52;;;;;;;20.00;9.90;;;;;;;12.37;34.89;101222.50;5028978;28;20042;-37
2023/02/14 10:25:23;;;;;;;16.25;9.80;;;;;;;11.99;33.99;101236.38;5028644;28;20029;-37
2023/02/14 10:27:51;;;;;;;15.43;9.27;;;;;;;11.96;34.12;101247.44;5029386;28;20106;-37
2023/02/14 10:30:21;;;;;;;15.25;9.40;;;;;;;12.18;33.35;101242.00;5029427;28;20029;-37
2023/02/14 10:33:01;;;;;;;14.65;8.82;;;;;;;12.10;33.14;101228.81;5029365;28;20072;-37
2023/02/14 10:35:50;;;;;;;15.10;8.57;;;;;;;12.19;33.32;101232.94;5029179;28;20532;-37
2023/02/14 10:38:21;;;;;;;;;;;;;;;12.56;33.75;101222.72;5029707;28;20103;-37
2023/02/14 10:40:58;;;;;;;12.77;7.95;;;;;;;12.83;33.06;101213.72;5028881;28;19927;-37
2023/02/14 10:43:34;;;;;;;17.48;8.75;;;;;;;13.12;32.66;101203.59;5028726;28;20064;-37
2023/02/14 10:46:22;;;;;;;13.40;7.82;;;;;;;13.06;32.60;101207.13;5029105;28;20044;-37
2023/02/14 10:49:12;;;;;;;15.35;9.15;;;;;;;12.56;30.12;101195.97;5029132;28;20040;-37
2023/02/14 10:51:40;;;;;;;13.38;7.72;;;;;;;12.90;30.25;101186.13;5029071;28;20030;-36
2023/02/14 10:54:20;;;;;;;19.38;9.25;;;;;;;13.20;31.18;101176.59;5029216;28;20033;-37
2023/02/14 10:56:49;;;;;;;15.48;8.90;;;;;;;13.42;32.17;101179.88;5028875;28;20112;-37
2023/02/14 10:59:30;;;;;;;14.32;8.07;;;;;;;12.94;30.74;101165.94;5028741;28;20446;-36
2023/02/14 11:01:58;;;;;;;14.02;7.72;;;;;;;12.89;31.24;101165.72;5029051;28;20028;-37
2023/02/14 11:04:24;;;;;;;15.85;8.65;;;;;;;12.97;31.76;101171.66;5029010;28;20037;-37
2023/02/14 11:06:51;;;;;;;16.45;8.70;;;;;;;13.18;29.60;101165.28;5028874;28;20061;-37
2023/02/14 11:09:17;;;;;;;15.27;8.52;;;;;;;13.92;30.55;101184.66;5028733;28;20554;-37
2023/02/14 11:11:48;;;;;;;15.70;7.97;;;;;;;14.56;27.44;101179.34;5028609;28;20109;-37
2023/02/14 11:14:30;;;;;;;14.95;8.00;;;;;;;14.92;27.79;101150.97;5027557;28;20064;-37
2023/02/14 11:16:57;;;;;;;16.00;8.55;;;;;;;15.17;28.70;101162.47;5031678;28;20036;-37
2023/02/14 11:19:30;;;;;;;15.32;8.30;;;;;;;15.06;27.77;101165.91;5036606;28;20025;-37
2023/02/14 11:21:57;;;;;;;14.48;8.52;;;;;;;14.77;28.12;101176.28;5028499;28;20112;-37
2023/02/14 11:24:40;;;;;;;15.18;8.80;;;;;;;14.55;29.27;101156.22;5028618;28;20175;-37
2023/02/14 11:27:06;;;;;;;15.30;9.98;;;;;;;14.79;29.23;101166.16;5028863;28;20067;-37
2023/02/14 11:29:43;;;;;;;17.48;9.25;;;;;;;15.45;28.94;101161.97;5028510;28;20057;-36
2023/02/14 11:32:15;;;;;;;14.55;8.70;;;;;;;14.96;28.84;101162.91;5028608;28;20030;-37
2023/02/14 11:34:46;;;;;;;15.50;9.40;;;;;;;14.76;29.75;101130.84;5030340;28;20040;-37
2023/02/14 11:37:26;;;;;;;17.20;9.80;;;;;;;15.39;29.13;101143.25;5032370;28;20029;-38
2023/02/14 11:39:54;;;;;;;15.73;9.23;;;;;;;15.27;28.79;101146.66;5032358;28;20199;-37
2023/02/14 11:42:41;;;;;;;14.32;8.70;;;;;;;15.33;28.31;101152.19;5032412;28;20073;-38
2023/02/14 11:45:27;;;;;;;15.03;8.57;;;;;;;14.81;28.02;101150.66;5032656;28;20032;-37